Time;durP1;ratioP1;P1;durP2;ratioP2;P2;SDS_P1;SDS_P2;PMS_P1;PMS_P2;Temp;Humidity;BMP_temperature;BMP_pressure;BME280_temperature;BME280_humidity;BME280_pressure;Samples;Min_cycle;Max_cycle;Signal;HPM_P1;HPM_P2
2023/12/28 00:01:24;;;;;;;2.30;1.50;;;;;;;;;;5054452;28;20032;-23
2023/12/28 00:03:50;;;;;;;1.35;1.17;;;;;;;;;;5054360;28;20528;-26
2023/12/28 00:06:17;;;;;;;1.95;1.50;;;;;;;;;;5054443;28;20356;-23
2023/12/28 00:08:43;;;;;;;1.25;1.00;;;;;;;;;;5054369;28;20025;-22
2023/12/28 00:11:09;;;;;;;2.58;1.00;;;;;;;;;;5054630;28;20422;-27
2023/12/28 00:13:36;;;;;;;1.48;1.20;;;;;;;;;;5054145;28;20025;-23
2023/12/28 00:16:02;;;;;;;1.90;0.98;;;;;;;;;;5054282;28;20026;-23
2023/12/28 00:18:28;;;;;;;2.55;1.25;;;;;;;;;;5054239;28;20498;-23
2023/12/28 00:20:54;;;;;;;3.00;1.27;;;;;;;;;;5054265;28;20082;-24
2023/12/28 00:23:20;;;;;;;1.50;1.40;;;;;;;;;;5054208;28;20147;-25
2023/12/28 00:25:46;;;;;;;2.50;1.48;;;;;;;;;;5054518;28;20021;-22
2023/12/28 00:28:13;;;;;;;1.55;1.05;;;;;;;;;;5057560;28;20029;-22
2023/12/28 00:30:39;;;;;;;4.18;1.52;;;;;;;;;;5058222;28;20456;-28
2023/12/28 00:33:05;;;;;;;2.35;1.48;;;;;;;;;;5058011;28;20113;-24
2023/12/28 00:35:31;;;;;;;2.78;1.45;;;;;;;;;;5057353;28;20376;-23
2023/12/28 00:37:57;;;;;;;3.00;1.20;;;;;;;;;;5057090;28;20040;-23
2023/12/28 00:40:23;;;;;;;3.72;1.48;;;;;;;;;;5058248;28;20103;-22
2023/12/28 00:42:50;;;;;;;1.73;1.55;;;;;;;;;;5057923;28;20049;-25
2023/12/28 00:45:16;;;;;;;2.60;1.38;;;;;;;;;;5057915;28;20033;-22
2023/12/28 00:47:45;;;;;;;1.40;1.30;;;;;;;;;;5058416;28;20081;-23
2023/12/28 00:50:17;;;;;;;2.13;1.35;;;;;;;;;;5056871;28;20047;-27
2023/12/28 00:52:43;;;;;;;3.22;1.60;;;;;;;;;;5057967;28;20037;-22
2023/12/28 00:55:11;;;;;;;2.08;1.77;;;;;;;;;;5057706;28;20024;-27
2023/12/28 00:57:37;;;;;;;1.40;1.17;;;;;;;;;;5057537;28;20050;-22
2023/12/28 01:00:04;;;;;;;2.25;1.15;;;;;;;;;;5057732;28;20059;-23
2023/12/28 01:02:30;;;;;;;2.90;1.50;;;;;;;;;;5023685;28;20452;-25
2023/12/28 01:04:56;;;;;;;2.80;1.30;;;;;;;;;;5057445;28;20063;-23
2023/12/28 01:07:23;;;;;;;1.35;1.05;;;;;;;;;;5057752;28;20436;-22
2023/12/28 01:09:50;;;;;;;1.30;1.17;;;;;;;;;;5057734;28;20025;-22
2023/12/28 01:12:16;;;;;;;1.55;1.45;;;;;;;;;;5057523;28;20024;-23
2023/12/28 01:14:42;;;;;;;1.20;1.10;;;;;;;;;;5057432;28;20025;-23
2023/12/28 01:17:08;;;;;;;1.17;1.10;;;;;;;;;;5057623;28;20028;-30
2023/12/28 01:19:34;;;;;;;1.75;1.60;;;;;;;;;;5057556;28;20036;-22
2023/12/28 01:22:00;;;;;;;1.73;1.20;;;;;;;;;;5056264;28;20021;-26
2023/12/28 01:24:26;;;;;;;3.28;1.70;;;;;;;;;;5057488;28;20440;-22
2023/12/28 01:26:53;;;;;;;1.30;1.20;;;;;;;;;;5057429;28;20067;-22
2023/12/28 01:29:19;;;;;;;1.88;1.33;;;;;;;;;;5057120;28;20017;-22
2023/12/28 01:31:45;;;;;;;1.45;1.20;;;;;;;;;;5056122;28;20021;-22
2023/12/28 01:34:12;;;;;;;1.55;1.10;;;;;;;;;;5055966;28;20364;-23
2023/12/28 01:36:41;;;;;;;4.25;2.08;;;;;;;;;;5057034;28;20018;-22
2023/12/28 01:39:07;;;;;;;1.27;1.17;;;;;;;;;;5056381;28;20037;-26
2023/12/28 01:41:33;;;;;;;2.92;1.17;;;;;;;;;;5056879;28;20021;-22
2023/12/28 01:44:00;;;;;;;1.88;1.30;;;;;;;;;;5056817;28;20448;-23
2023/12/28 01:46:26;;;;;;;1.80;1.48;;;;;;;;;;5057080;28;20104;-23
2023/12/28 01:48:52;;;;;;;3.08;1.42;;;;;;;;;;5057017;28;20068;-27
2023/12/28 01:51:20;;;;;;;2.45;1.60;;;;;;;;;;5056996;28;20033;-23
2023/12/28 01:53:48;;;;;;;3.80;1.38;;;;;;;;;;5056513;28;20029;-24
2023/12/28 01:56:14;;;;;;;0.80;0.80;;;;;;;;;;5056627;28;20044;-22
2023/12/28 01:58:42;;;;;;;1.42;1.10;;;;;;;;;;5056560;28;20075;-22
2023/12/28 02:01:08;;;;;;;1.50;1.40;;;;;;;;;;5056820;28;20025;-23
2023/12/28 02:03:34;;;;;;;4.32;1.50;;;;;;;;;;5056271;28;20044;-22
2023/12/28 02:06:01;;;;;;;1.50;1.20;;;;;;;;;;5056958;28;20029;-24
2023/12/28 02:08:27;;;;;;;1.63;1.13;;;;;;;;;;5056354;28;20053;-23
2023/12/28 02:10:55;;;;;;;2.58;1.05;;;;;;;;;;5056330;28;20108;-24
2023/12/28 02:13:21;;;;;;;2.53;1.40;;;;;;;;;;5056451;28;20029;-24
2023/12/28 02:15:50;;;;;;;1.83;1.45;;;;;;;;;;5056277;28;20075;-23
2023/12/28 02:18:19;;;;;;;1.17;1.02;;;;;;;;;;5056214;28;20092;-22
2023/12/28 02:20:46;;;;;;;1.15;1.00;;;;;;;;;;5056197;28;20024;-22
2023/12/28 02:23:12;;;;;;;1.40;1.30;;;;;;;;;;5056054;28;20039;-25
2023/12/28 02:25:38;;;;;;;1.30;1.13;;;;;;;;;;5056592;28;20094;-23
2023/12/28 02:28:05;;;;;;;1.30;1.20;;;;;;;;;;5056560;28;20032;-23
2023/12/28 02:30:31;;;;;;;1.73;1.23;;;;;;;;;;5056501;28;20029;-24
2023/12/28 02:33:07;;;;;;;1.40;1.13;;;;;;;;;;5056093;28;20024;-27
2023/12/28 02:35:34;;;;;;;2.85;1.40;;;;;;;;;;5056201;28;20184;-23
2023/12/28 02:38:20;;;;;;;1.00;0.80;;;;;;;;;;5055776;28;20527;-23
2023/12/28 02:40:48;;;;;;;1.42;1.20;;;;;;;;;;5055669;28;20342;-22
2023/12/28 02:43:14;;;;;;;1.48;1.38;;;;;;;;;;5055597;28;20456;-22
2023/12/28 02:45:40;;;;;;;1.33;1.10;;;;;;;;;;5055941;28;20121;-23
2023/12/28 02:48:06;;;;;;;0.90;0.90;;;;;;;;;;5055628;28;20452;-24
2023/12/28 02:50:33;;;;;;;1.48;1.10;;;;;;;;;;5054724;28;20029;-26
2023/12/28 02:52:59;;;;;;;2.88;1.33;;;;;;;;;;5055636;28;20052;-24
2023/12/28 02:55:26;;;;;;;1.45;1.35;;;;;;;;;;5055767;28;20017;-23
2023/12/28 02:57:54;;;;;;;1.35;1.10;;;;;;;;;;5055438;28;20029;-23
2023/12/28 03:00:21;;;;;;;1.63;1.40;;;;;;;;;;5055366;28;20025;-22
2023/12/28 03:02:47;;;;;;;1.40;1.30;;;;;;;;;;5054167;28;20358;-22
2023/12/28 03:05:13;;;;;;;1.40;1.15;;;;;;;;;;5055908;28;20100;-22
2023/12/28 03:07:40;;;;;;;2.60;1.17;;;;;;;;;;5055300;28;20047;-26
2023/12/28 03:10:07;;;;;;;1.13;0.93;;;;;;;;;;5055510;28;20402;-26
2023/12/28 03:12:33;;;;;;;1.50;1.40;;;;;;;;;;5055043;28;20025;-22
2023/12/28 03:14:59;;;;;;;2.28;1.50;;;;;;;;;;5055160;28;20097;-22
2023/12/28 03:17:25;;;;;;;1.75;1.65;;;;;;;;;;5055089;28;20025;-23
2023/12/28 03:19:52;;;;;;;1.52;1.42;;;;;;;;;;5055331;28;20100;-23
2023/12/28 03:22:18;;;;;;;2.83;1.30;;;;;;;;;;5054960;28;20063;-22
2023/12/28 03:24:45;;;;;;;1.30;1.10;;;;;;;;;;5055252;28;20105;-23
2023/12/28 03:27:11;;;;;;;2.25;1.33;;;;;;;;;;5055773;28;20032;-24
2023/12/28 03:29:37;;;;;;;1.42;1.33;;;;;;;;;;5055181;28;20398;-22
2023/12/28 03:32:04;;;;;;;7.82;1.30;;;;;;;;;;5054707;28;20020;-26
2023/12/28 03:34:30;;;;;;;1.45;1.10;;;;;;;;;;5053872;28;20329;-22
2023/12/28 03:36:57;;;;;;;3.97;1.25;;;;;;;;;;5054723;28;20517;-23
2023/12/28 03:39:23;;;;;;;1.67;1.50;;;;;;;;;;5054691;28;20039;-22
2023/12/28 03:41:49;;;;;;;2.05;1.65;;;;;;;;;;5054948;28;20013;-34
2023/12/28 03:44:15;;;;;;;1.50;1.20;;;;;;;;;;5054687;28;20040;-22
2023/12/28 03:46:41;;;;;;;1.65;1.23;;;;;;;;;;5054688;28;20025;-26
2023/12/28 03:49:08;;;;;;;2.75;1.08;;;;;;;;;;5054891;28;20037;-27
2023/12/28 03:51:34;;;;;;;1.63;1.35;;;;;;;;;;5055365;28;20033;-22
2023/12/28 03:54:00;;;;;;;1.63;1.30;;;;;;;;;;5054456;28;20043;-22
2023/12/28 03:56:27;;;;;;;1.80;1.67;;;;;;;;;;5054473;28;20021;-24
2023/12/28 03:58:53;;;;;;;2.20;1.40;;;;;;;;;;5054743;28;20491;-22
2023/12/28 04:01:20;;;;;;;2.38;1.27;;;;;;;;;;5054257;28;20108;-23
2023/12/28 04:03:46;;;;;;;1.13;1.13;;;;;;;;;;5054160;28;20051;-22
2023/12/28 04:06:13;;;;;;;1.45;1.27;;;;;;;;;;5054669;28;20089;-23
2023/12/28 04:08:39;;;;;;;1.63;1.17;;;;;;;;;;5054916;28;20471;-23
2023/12/28 04:11:05;;;;;;;1.23;1.10;;;;;;;;;;5054395;28;20044;-22
2023/12/28 04:13:32;;;;;;;2.42;2.22;;;;;;;;;;5054463;28;20356;-22
2023/12/28 04:15:58;;;;;;;3.45;1.20;;;;;;;;;;5054271;28;20025;-24
2023/12/28 04:18:24;;;;;;;1.70;1.23;;;;;;;;;;5054272;28;20118;-23
2023/12/28 04:20:50;;;;;;;2.35;1.38;;;;;;;;;;5054284;28;20021;-23
2023/12/28 04:23:16;;;;;;;1.20;1.10;;;;;;;;;;5054149;28;20021;-23
2023/12/28 04:25:43;;;;;;;2.25;1.38;;;;;;;;;;5054511;28;20025;-24
2023/12/28 04:28:09;;;;;;;1.70;1.60;;;;;;;;;;5053982;28;20047;-22
2023/12/28 04:30:35;;;;;;;1.10;1.00;;;;;;;;;;5054208;28;20116;-24
2023/12/28 04:33:02;;;;;;;1.65;1.27;;;;;;;;;;5054167;28;20057;-22
2023/12/28 04:35:28;;;;;;;2.33;2.13;;;;;;;;;;5053207;28;20103;-23
2023/12/28 04:37:54;;;;;;;1.15;1.00;;;;;;;;;;5053149;28;20414;-26
2023/12/28 04:40:21;;;;;;;1.30;1.20;;;;;;;;;;5054113;28;20021;-22
2023/12/28 04:42:47;;;;;;;0.93;0.93;;;;;;;;;;5053957;28;20143;-23
2023/12/28 04:45:13;;;;;;;1.67;1.30;;;;;;;;;;5054041;28;20029;-27
2023/12/28 04:47:39;;;;;;;2.70;1.25;;;;;;;;;;5054279;28;20025;-25
2023/12/28 04:50:06;;;;;;;2.97;1.38;;;;;;;;;;5053964;28;20032;-24
2023/12/28 04:52:33;;;;;;;1.40;1.30;;;;;;;;;;5036552;28;20036;-22
2023/12/28 04:54:59;;;;;;;1.52;1.13;;;;;;;;;;5054281;28;20021;-22
2023/12/28 04:57:27;;;;;;;1.77;1.45;;;;;;;;;;5053971;28;20025;-23
2023/12/28 04:59:54;;;;;;;1.63;1.17;;;;;;;;;;5054096;28;20064;-25
2023/12/28 05:02:20;;;;;;;1.40;1.30;;;;;;;;;;5054080;28;20025;-22
2023/12/28 05:04:46;;;;;;;1.15;1.00;;;;;;;;;;5053824;28;20051;-22
2023/12/28 05:07:12;;;;;;;1.48;1.17;;;;;;;;;;5054417;28;20032;-24
2023/12/28 05:09:38;;;;;;;1.40;1.30;;;;;;;;;;5054082;28;20390;-22
2023/12/28 05:12:05;;;;;;;1.85;1.05;;;;;;;;;;5053666;28;20436;-24
2023/12/28 05:14:31;;;;;;;1.75;1.00;;;;;;;;;;5057042;28;20083;-22
2023/12/28 05:16:57;;;;;;;1.90;1.50;;;;;;;;;;5057504;28;20394;-24
2023/12/28 05:19:23;;;;;;;1.52;1.23;;;;;;;;;;5057248;28;20021;-22
2023/12/28 05:21:49;;;;;;;1.30;1.02;;;;;;;;;;5057446;28;20021;-23
2023/12/28 05:24:15;;;;;;;1.33;1.00;;;;;;;;;;5057381;28;20113;-25
2023/12/28 05:26:41;;;;;;;1.63;1.10;;;;;;;;;;5057160;28;20079;-25
2023/12/28 05:29:08;;;;;;;1.30;1.10;;;;;;;;;;5056184;28;20360;-22
2023/12/28 05:31:34;;;;;;;2.65;1.30;;;;;;;;;;5056984;28;20093;-32
2023/12/28 05:34:00;;;;;;;1.73;1.45;;;;;;;;;;5056834;28;20028;-22
2023/12/28 05:36:26;;;;;;;1.50;1.40;;;;;;;;;;5057172;28;20094;-23
2023/12/28 05:38:52;;;;;;;1.50;1.38;;;;;;;;;;5056944;28;20325;-22
2023/12/28 05:41:19;;;;;;;2.17;1.73;;;;;;;;;;5056975;28;20068;-24
2023/12/28 05:43:45;;;;;;;3.50;1.17;;;;;;;;;;5056780;28;20107;-23
2023/12/28 05:46:11;;;;;;;4.63;1.65;;;;;;;;;;5057098;28;20021;-24
2023/12/28 05:48:37;;;;;;;13.88;2.65;;;;;;;;;;5056842;28;20021;-26
2023/12/28 05:51:03;;;;;;;1.05;0.98;;;;;;;;;;5057020;28;20451;-23
2023/12/28 05:53:29;;;;;;;1.33;1.15;;;;;;;;;;5056505;28;20043;-22
2023/12/28 05:55:55;;;;;;;2.53;2.33;;;;;;;;;;5056886;28;20021;-21
2023/12/28 05:58:21;;;;;;;4.60;1.58;;;;;;;;;;5055719;28;20044;-23
2023/12/28 06:03:30;;;;;;;3.28;1.50;;;;;;;;;;5289169;22;20068;-33
2023/12/28 06:05:56;;;;;;;2.70;1.15;;;;;;;;;;5016654;28;20049;-29
2023/12/28 06:08:22;;;;;;;3.42;1.70;;;;;;;;;;5016845;28;20188;-33
2023/12/28 06:10:48;;;;;;;1.95;1.35;;;;;;;;;;5016526;28;20037;-30
2023/12/28 06:13:15;;;;;;;2.22;1.30;;;;;;;;;;5016842;28;20034;-33
2023/12/28 06:15:41;;;;;;;2.33;1.80;;;;;;;;;;5016837;28;20053;-32
2023/12/28 06:18:07;;;;;;;4.13;1.35;;;;;;;;;;5017004;28;20026;-28
2023/12/28 06:20:33;;;;;;;4.03;1.38;;;;;;;;;;5016413;28;20036;-30
2023/12/28 06:22:59;;;;;;;2.60;1.45;;;;;;;;;;5016363;28;20033;-30
2023/12/28 06:25:25;;;;;;;1.92;1.13;;;;;;;;;;5016550;28;20037;-28
2023/12/28 06:27:52;;;;;;;3.20;1.30;;;;;;;;;;5016862;28;20360;-31
2023/12/28 06:30:18;;;;;;;3.53;1.42;;;;;;;;;;5016538;28;20026;-31
2023/12/28 06:32:44;;;;;;;1.83;1.20;;;;;;;;;;5016080;28;20408;-27
2023/12/28 06:35:10;;;;;;;2.22;1.33;;;;;;;;;;5016264;28;20026;-31
2023/12/28 06:37:36;;;;;;;2.70;1.40;;;;;;;;;;4998731;28;20033;-32
2023/12/28 06:40:02;;;;;;;2.58;1.60;;;;;;;;;;5016326;28;20021;-29
2023/12/28 06:42:29;;;;;;;1.75;1.10;;;;;;;;;;5016118;28;20024;-28
2023/12/28 06:44:55;;;;;;;2.08;1.15;;;;;;;;;;5015900;28;20357;-34
2023/12/28 06:47:21;;;;;;;1.58;1.27;;;;;;;;;;5016215;28;20373;-31
2023/12/28 06:49:47;;;;;;;1.90;1.40;;;;;;;;;;5015803;28;20483;-32
2023/12/28 06:52:13;;;;;;;1.67;1.33;;;;;;;;;;5015835;28;20083;-32
2023/12/28 06:54:40;;;;;;;2.45;1.40;;;;;;;;;;5016003;28;20018;-33
2023/12/28 06:57:06;;;;;;;3.33;1.52;;;;;;;;;;5015707;28;20081;-31
2023/12/28 06:59:32;;;;;;;1.60;1.50;;;;;;;;;;5015678;28;20152;-31
2023/12/28 07:01:58;;;;;;;3.55;1.40;;;;;;;;;;5015607;28;20029;-32
2023/12/28 07:04:26;;;;;;;2.25;1.27;;;;;;;;;;5016145;28;20074;-31
2023/12/28 07:06:52;;;;;;;2.25;1.52;;;;;;;;;;5016073;28;20021;-30
2023/12/28 07:09:18;;;;;;;1.90;1.05;;;;;;;;;;5015783;28;20036;-33
2023/12/28 07:11:45;;;;;;;3.13;1.75;;;;;;;;;;5015391;28;20026;-32
2023/12/28 07:14:11;;;;;;;2.40;1.40;;;;;;;;;;5015669;28;20053;-32
2023/12/28 07:16:37;;;;;;;2.50;1.70;;;;;;;;;;5015381;28;20468;-33
2023/12/28 07:19:04;;;;;;;2.67;1.40;;;;;;;;;;5015311;28;20026;-32
2023/12/28 07:21:30;;;;;;;5.25;1.63;;;;;;;;;;5015260;28;20076;-32
2023/12/28 07:23:56;;;;;;;2.63;1.50;;;;;;;;;;4997951;28;20029;-28
2023/12/28 07:26:22;;;;;;;2.35;1.50;;;;;;;;;;5015333;28;20040;-28
2023/12/28 07:28:48;;;;;;;3.05;1.58;;;;;;;;;;5015250;28;20087;-29
2023/12/28 07:31:27;;;;;;;5.60;1.63;;;;;;;;;;5015500;28;20025;-33
2023/12/28 07:33:54;;;;;;;1.77;1.30;;;;;;;;;;5015028;28;20099;-33
2023/12/28 07:36:21;;;;;;;2.50;1.65;;;;;;;;;;5014931;28;20136;-32
2023/12/28 07:38:47;;;;;;;4.68;1.48;;;;;;;;;;5015106;28;20033;-30
2023/12/28 07:41:13;;;;;;;4.13;1.33;;;;;;;;;;5014968;28;20034;-29
2023/12/28 07:43:39;;;;;;;3.72;1.45;;;;;;;;;;5015072;28;20471;-32
2023/12/28 07:46:05;;;;;;;8.35;1.90;;;;;;;;;;5014906;28;20033;-28
2023/12/28 07:48:32;;;;;;;4.70;1.65;;;;;;;;;;5014897;28;20021;-31
2023/12/28 07:50:58;;;;;;;4.72;1.33;;;;;;;;;;5014895;28;20041;-32
2023/12/28 07:53:24;;;;;;;2.83;1.50;;;;;;;;;;5014730;28;20360;-30
2023/12/28 07:55:51;;;;;;;8.57;2.15;;;;;;;;;;5014920;28;20050;-32
2023/12/28 07:58:17;;;;;;;9.40;1.75;;;;;;;;;;5015096;28;20090;-28
2023/12/28 08:00:43;;;;;;;7.82;1.90;;;;;;;;;;5014637;28;20033;-32
2023/12/28 08:03:09;;;;;;;4.05;1.77;;;;;;;;;;5014528;28;20132;-31
2023/12/28 08:05:35;;;;;;;3.72;1.75;;;;;;;;;;5014910;28;20026;-31
2023/12/28 08:08:01;;;;;;;6.45;1.67;;;;;;;;;;5014717;28;20100;-31
2023/12/28 08:10:27;;;;;;;10.63;2.47;;;;;;;;;;5014878;28;20468;-29
2023/12/28 08:12:53;;;;;;;6.95;1.65;;;;;;;;;;5014564;28;20061;-31
2023/12/28 08:15:20;;;;;;;5.15;1.45;;;;;;;;;;5014827;28;20471;-31
2023/12/28 08:17:46;;;;;;;3.67;1.67;;;;;;;;;;5014733;28;20030;-26
2023/12/28 08:20:12;;;;;;;6.68;1.95;;;;;;;;;;5014502;28;20097;-29
2023/12/28 08:22:38;;;;;;;11.90;4.82;;;;;;;;;;5015035;28;20065;-28
2023/12/28 08:25:04;;;;;;;10.95;1.77;;;;;;;;;;5014452;28;20380;-30
2023/12/28 08:27:30;;;;;;;2.78;1.48;;;;;;;;;;5014708;28;20137;-30
2023/12/28 08:29:57;;;;;;;4.90;1.50;;;;;;;;;;5014679;28;20116;-34
2023/12/28 08:32:23;;;;;;;4.90;1.23;;;;;;;;;;5014167;28;20044;-32
2023/12/28 08:34:50;;;;;;;3.35;1.58;;;;;;;;;;5014373;28;20026;-31
2023/12/28 08:37:16;;;;;;;6.13;2.45;;;;;;;;;;5014576;28;20033;-31
2023/12/28 08:39:43;;;;;;;6.20;3.22;;;;;;;;;;5014338;28;20025;-31
2023/12/28 08:42:09;;;;;;;5.78;2.55;;;;;;;;;;5014474;28;20032;-28
2023/12/28 08:44:36;;;;;;;8.05;1.98;;;;;;;;;;5014263;28;20096;-29
2023/12/28 08:47:03;;;;;;;8.15;2.25;;;;;;;;;;5014559;28;20030;-28
2023/12/28 08:49:29;;;;;;;5.45;1.63;;;;;;;;;;5017873;28;20033;-30
2023/12/28 08:51:55;;;;;;;6.55;2.03;;;;;;;;;;5017959;28;20037;-31
2023/12/28 08:54:21;;;;;;;5.65;1.67;;;;;;;;;;5017907;28;20064;-34
2023/12/28 08:56:48;;;;;;;4.65;1.65;;;;;;;;;;5017944;28;20022;-30
2023/12/28 08:59:14;;;;;;;5.40;1.90;;;;;;;;;;5017910;28;20022;-32
2023/12/28 09:01:40;;;;;;;4.15;1.30;;;;;;;;;;5018141;28;20026;-30
2023/12/28 09:04:06;;;;;;;8.88;2.08;;;;;;;;;;5017605;28;20507;-30
2023/12/28 09:06:33;;;;;;;5.32;1.77;;;;;;;;;;5018245;28;20034;-30
2023/12/28 09:08:59;;;;;;;5.28;2.20;;;;;;;;;;5018180;28;20037;-32
2023/12/28 09:11:26;;;;;;;4.68;1.48;;;;;;;;;;5018143;28;20026;-33
2023/12/28 09:13:52;;;;;;;9.40;2.42;;;;;;;;;;5017333;28;20104;-31
2023/12/28 09:16:18;;;;;;;5.28;1.95;;;;;;;;;;5017981;28;20088;-32
2023/12/28 09:18:45;;;;;;;5.00;1.75;;;;;;;;;;5017473;28;20080;-29
2023/12/28 09:21:11;;;;;;;4.63;1.85;;;;;;;;;;5017659;28;20330;-31
2023/12/28 09:23:37;;;;;;;2.88;1.70;;;;;;;;;;5017642;28;20040;-30
2023/12/28 09:26:04;;;;;;;6.90;1.95;;;;;;;;;;5018107;28;20033;-34
2023/12/28 09:28:31;;;;;;;4.53;1.90;;;;;;;;;;5017305;28;20133;-30
2023/12/28 09:30:57;;;;;;;5.25;1.95;;;;;;;;;;5017268;28;20085;-32
2023/12/28 09:33:24;;;;;;;3.67;1.52;;;;;;;;;;5017403;28;20026;-31
2023/12/28 09:35:50;;;;;;;4.88;1.83;;;;;;;;;;5017226;28;20025;-31
2023/12/28 09:38:16;;;;;;;3.53;1.77;;;;;;;;;;5017327;28;20026;-31
2023/12/28 09:40:43;;;;;;;4.95;2.10;;;;;;;;;;5017492;28;20084;-28
2023/12/28 09:43:25;;;;;;;6.95;1.92;;;;;;;;;;5016815;28;20033;-31
2023/12/28 09:45:51;;;;;;;8.00;2.20;;;;;;;;;;5016870;28;20029;-28
2023/12/28 09:48:18;;;;;;;2.42;1.40;;;;;;;;;;5017202;28;20040;-32
2023/12/28 09:50:51;;;;;;;7.45;2.72;;;;;;;;;;5017164;28;20030;-29
2023/12/28 09:53:17;;;;;;;6.72;3.00;;;;;;;;;;5016615;28;20033;-32
2023/12/28 09:55:43;;;;;;;9.85;2.80;;;;;;;;;;5017382;28;20368;-32
2023/12/28 09:58:10;;;;;;;5.90;1.90;;;;;;;;;;5016613;28;20044;-32
2023/12/28 10:00:37;;;;;;;5.40;1.65;;;;;;;;;;5017136;28;20400;-26
2023/12/28 10:03:03;;;;;;;7.85;1.83;;;;;;;;;;5016303;28;20148;-26
2023/12/28 10:05:30;;;;;;;4.15;2.40;;;;;;;;;;5016824;28;20397;-28
2023/12/28 10:07:57;;;;;;;7.70;2.83;;;;;;;;;;5016809;28;20030;-27
2023/12/28 10:10:23;;;;;;;7.32;2.17;;;;;;;;;;5016713;28;20353;-27
2023/12/28 10:12:49;;;;;;;4.57;1.90;;;;;;;;;;5016355;28;20021;-26
2023/12/28 10:15:15;;;;;;;7.85;2.17;;;;;;;;;;5016420;28;20456;-28
2023/12/28 10:17:41;;;;;;;3.47;1.50;;;;;;;;;;4999044;28;20032;-32
2023/12/28 10:20:09;;;;;;;2.72;1.63;;;;;;;;;;5016342;28;20021;-32
2023/12/28 10:22:36;;;;;;;4.63;2.42;;;;;;;;;;5016130;28;20060;-28
2023/12/28 10:25:03;;;;;;;5.57;2.35;;;;;;;;;;5016620;28;20390;-30
2023/12/28 10:27:29;;;;;;;6.90;2.65;;;;;;;;;;5016571;28;20491;-28
2023/12/28 10:29:56;;;;;;;4.75;2.63;;;;;;;;;;5016582;28;20083;-28
2023/12/28 10:32:25;;;;;;;3.35;1.85;;;;;;;;;;5016198;28;20030;-30
2023/12/28 10:34:55;;;;;;;8.95;4.32;;;;;;;;;;5016630;28;20040;-27
2023/12/28 10:37:21;;;;;;;5.70;2.20;;;;;;;;;;5016150;28;20026;-29
2023/12/28 10:39:52;;;;;;;6.57;1.73;;;;;;;;;;5016260;28;20491;-32
2023/12/28 10:42:40;;;;;;;2.83;1.83;;;;;;;;;;5015977;28;20050;-30
2023/12/28 10:45:10;;;;;;;6.03;2.33;;;;;;;;;;5015682;28;20037;-28
2023/12/28 10:47:43;;;;;;;5.47;2.00;;;;;;;;;;4998615;28;20433;-29
2023/12/28 10:50:11;;;;;;;6.03;1.70;;;;;;;;;;5016117;28;20041;-32
2023/12/28 10:52:40;;;;;;;11.48;1.67;;;;;;;;;;5015648;28;20014;-26
2023/12/28 10:55:06;;;;;;;5.30;2.13;;;;;;;;;;5015798;28;20345;-27
2023/12/28 10:57:44;;;;;;;5.72;1.90;;;;;;;;;;5015680;28;20022;-27
2023/12/28 11:00:11;;;;;;;4.10;1.85;;;;;;;;;;5015997;28;20140;-30
2023/12/28 11:02:51;;;;;;;6.10;2.10;;;;;;;;;;5015529;28;20045;-30
2023/12/28 11:05:17;;;;;;;3.90;2.08;;;;;;;;;;5015750;28;20030;-29
2023/12/28 11:07:45;;;;;;;3.05;2.10;;;;;;;;;;5015501;28;20049;-27
2023/12/28 11:10:11;;;;;;;7.93;2.13;;;;;;;;;;5014740;28;20036;-27
2023/12/28 11:12:38;;;;;;;4.28;1.67;;;;;;;;;;5015173;28;20053;-30
2023/12/28 11:15:06;;;;;;;6.00;1.98;;;;;;;;;;5015377;28;20382;-27
2023/12/28 11:17:32;;;;;;;5.13;2.25;;;;;;;;;;5015219;28;20025;-26
2023/12/28 11:19:59;;;;;;;12.77;2.00;;;;;;;;;;5015357;28;20022;-26
2023/12/28 11:22:25;;;;;;;4.22;1.90;;;;;;;;;;5015178;28;20361;-27
2023/12/28 11:24:55;;;;;;;9.25;2.40;;;;;;;;;;5015181;28;20068;-26
2023/12/28 11:27:21;;;;;;;5.05;1.60;;;;;;;;;;5015563;28;20413;-30
2023/12/28 11:29:49;;;;;;;7.13;2.15;;;;;;;;;;5015365;28;20152;-30
2023/12/28 11:32:15;;;;;;;4.97;1.50;;;;;;;;;;5014889;28;20026;-29
2023/12/28 11:34:41;;;;;;;3.25;1.70;;;;;;;;;;5014796;28;20030;-30
2023/12/28 11:37:09;;;;;;;4.80;2.45;;;;;;;;;;5015588;28;20032;-32
2023/12/28 11:39:37;;;;;;;5.95;1.90;;;;;;;;;;5014791;28;20029;-28
2023/12/28 11:42:04;;;;;;;5.50;2.05;;;;;;;;;;5014728;28;20445;-27
2023/12/28 11:44:30;;;;;;;12.32;1.45;;;;;;;;;;5014996;28;20409;-28
2023/12/28 11:46:57;;;;;;;4.10;1.73;;;;;;;;;;5015004;28;20416;-36
2023/12/28 11:49:29;;;;;;;3.35;2.50;;;;;;;;;;5014919;28;20096;-30
2023/12/28 11:51:59;;;;;;;3.20;1.73;;;;;;;;;;5014932;28;20334;-28
2023/12/28 11:54:26;;;;;;;3.42;1.50;;;;;;;;;;5015102;28;20162;-28
2023/12/28 11:56:52;;;;;;;6.22;1.90;;;;;;;;;;5014558;28;20187;-29
2023/12/28 11:59:21;;;;;;;4.65;2.08;;;;;;;;;;5014523;28;20479;-31
2023/12/28 12:01:51;;;;;;;5.82;1.85;;;;;;;;;;5014657;28;20037;-28
2023/12/28 12:04:21;;;;;;;4.78;1.92;;;;;;;;;;5014382;28;20049;-27
2023/12/28 12:06:47;;;;;;;4.13;1.27;;;;;;;;;;5014673;28;20406;-26
2023/12/28 12:09:14;;;;;;;5.35;2.05;;;;;;;;;;5014400;28;20033;-28
2023/12/28 12:11:41;;;;;;;2.90;1.83;;;;;;;;;;5014435;28;20030;-30
2023/12/28 12:14:13;;;;;;;4.80;1.92;;;;;;;;;;5014544;28;20022;-27
2023/12/28 12:16:39;;;;;;;4.07;1.70;;;;;;;;;;5014596;28;20033;-31
2023/12/28 12:19:08;;;;;;;8.90;2.33;;;;;;;;;;5014641;28;20349;-28
2023/12/28 12:21:35;;;;;;;10.15;2.97;;;;;;;;;;5015158;28;20061;-26
2023/12/28 12:24:01;;;;;;;14.48;3.03;;;;;;;;;;5018256;28;20037;-29
2023/12/28 12:26:28;;;;;;;9.50;2.60;;;;;;;;;;5018424;28;20412;-27
2023/12/28 12:28:54;;;;;;;4.35;2.65;;;;;;;;;;5018337;28;20030;-27
2023/12/28 12:31:20;;;;;;;5.35;2.10;;;;;;;;;;5018386;28;20060;-28
2023/12/28 12:33:46;;;;;;;5.75;1.80;;;;;;;;;;5018126;28;20104;-28
2023/12/28 12:36:12;;;;;;;15.55;2.50;;;;;;;;;;5018515;28;20044;-30
2023/12/28 12:38:39;;;;;;;14.60;3.35;;;;;;;;;;5018226;28;20026;-30
2023/12/28 12:41:05;;;;;;;13.10;2.35;;;;;;;;;;5018208;28;20029;-29
2023/12/28 12:43:31;;;;;;;9.45;2.58;;;;;;;;;;5018333;28;20109;-30
2023/12/28 12:45:57;;;;;;;14.02;2.83;;;;;;;;;;5018779;28;20349;-27
2023/12/28 12:48:23;;;;;;;6.65;2.30;;;;;;;;;;5017951;28;20030;-28
2023/12/28 12:50:50;;;;;;;11.00;1.85;;;;;;;;;;5017909;28;20087;-27
2023/12/28 12:53:16;;;;;;;5.28;1.63;;;;;;;;;;5018074;28;20029;-27
2023/12/28 12:55:43;;;;;;;6.53;2.53;;;;;;;;;;5017850;28;20026;-28
2023/12/28 12:58:16;;;;;;;7.28;2.55;;;;;;;;;;5017730;28;20044;-26
2023/12/28 13:00:42;;;;;;;6.75;2.63;;;;;;;;;;5018027;28;20049;-29
2023/12/28 13:03:09;;;;;;;10.98;3.88;;;;;;;;;;5017452;28;20052;-25
2023/12/28 13:05:37;;;;;;;7.78;2.13;;;;;;;;;;5017999;28;20105;-29
2023/12/28 13:08:03;;;;;;;8.45;3.20;;;;;;;;;;5017681;28;20061;-31
2023/12/28 13:10:29;;;;;;;6.72;1.77;;;;;;;;;;5017645;28;20034;-29
2023/12/28 13:12:56;;;;;;;7.18;2.40;;;;;;;;;;5017734;28;20053;-27
2023/12/28 13:15:22;;;;;;;7.57;2.17;;;;;;;;;;5017499;28;20029;-27
2023/12/28 13:17:48;;;;;;;11.43;3.00;;;;;;;;;;5017799;28;20022;-27
2023/12/28 13:20:14;;;;;;;5.60;3.45;;;;;;;;;;5017480;28;20022;-29
2023/12/28 13:22:40;;;;;;;4.70;2.13;;;;;;;;;;5017607;28;20018;-27
2023/12/28 13:25:07;;;;;;;4.93;2.42;;;;;;;;;;5017395;28;20022;-29
2023/12/28 13:27:33;;;;;;;5.35;2.30;;;;;;;;;;5017572;28;20339;-29
2023/12/28 13:29:59;;;;;;;9.02;2.53;;;;;;;;;;5017382;28;20053;-25
2023/12/28 13:32:25;;;;;;;10.20;2.20;;;;;;;;;;5017368;28;20033;-27
2023/12/28 13:34:52;;;;;;;7.35;2.28;;;;;;;;;;5016652;28;20026;-27
2023/12/28 13:37:18;;;;;;;4.72;2.13;;;;;;;;;;5017908;28;20084;-29
2023/12/28 13:39:44;;;;;;;6.82;2.63;;;;;;;;;;5017274;28;20461;-31
2023/12/28 13:42:10;;;;;;;6.63;1.98;;;;;;;;;;5017418;28;20036;-28
2023/12/28 13:44:37;;;;;;;4.90;2.42;;;;;;;;;;5017448;28;20037;-28
2023/12/28 13:47:03;;;;;;;7.32;2.25;;;;;;;;;;5017189;28;20042;-31
2023/12/28 13:49:29;;;;;;;6.15;2.50;;;;;;;;;;5017600;28;20441;-27
2023/12/28 13:51:56;;;;;;;7.50;2.30;;;;;;;;;;5016900;28;20034;-26
2023/12/28 13:54:22;;;;;;;5.13;2.45;;;;;;;;;;5016947;28;20056;-27
2023/12/28 13:56:48;;;;;;;10.43;3.05;;;;;;;;;;5016990;28;20014;-28
2023/12/28 13:59:14;;;;;;;5.28;2.13;;;;;;;;;;5016927;28;20030;-31
2023/12/28 14:01:41;;;;;;;4.10;2.53;;;;;;;;;;5017374;28;20349;-31
2023/12/28 14:04:07;;;;;;;6.57;2.20;;;;;;;;;;5016664;28;20497;-28
2023/12/28 14:06:33;;;;;;;5.97;2.47;;;;;;;;;;5017001;28;20167;-30
2023/12/28 14:08:59;;;;;;;4.53;2.13;;;;;;;;;;5016652;28;20026;-30
2023/12/28 14:11:26;;;;;;;6.00;2.45;;;;;;;;;;5016956;28;20037;-30
2023/12/28 14:13:52;;;;;;;8.63;3.45;;;;;;;;;;5016489;28;20034;-30
2023/12/28 14:16:18;;;;;;;8.57;2.17;;;;;;;;;;5016652;28;20018;-30
2023/12/28 14:18:44;;;;;;;9.52;2.50;;;;;;;;;;5016582;28;20105;-28
2023/12/28 14:21:13;;;;;;;9.90;2.88;;;;;;;;;;5016746;28;20080;-28
2023/12/28 14:23:40;;;;;;;7.80;2.28;;;;;;;;;;5016685;28;20064;-30
2023/12/28 14:26:11;;;;;;;4.88;2.70;;;;;;;;;;5016389;28;20040;-28
2023/12/28 14:28:37;;;;;;;12.20;3.03;;;;;;;;;;5016717;28;20113;-28
2023/12/28 14:31:03;;;;;;;7.93;2.78;;;;;;;;;;5016394;28;20476;-27
2023/12/28 14:33:31;;;;;;;5.03;2.28;;;;;;;;;;5016449;28;20030;-27
2023/12/28 14:35:59;;;;;;;11.65;3.67;;;;;;;;;;5016488;28;20371;-27
2023/12/28 14:38:25;;;;;;;5.85;2.67;;;;;;;;;;5016136;28;20022;-27
2023/12/28 14:40:52;;;;;;;7.10;2.30;;;;;;;;;;5016134;28;20441;-28
2023/12/28 14:43:18;;;;;;;5.38;2.30;;;;;;;;;;5016035;28;20026;-28